sensor_id;sensor_type;location;lat;lon;timestamp;temperature;humidity
33077;DHT22;38790;51.964;5.924;2022-10-16T00:00:57;11.50;99.90
33077;DHT22;38790;51.964;5.924;2022-10-16T00:03:23;11.40;99.90
33077;DHT22;38790;51.964;5.924;2022-10-16T00:05:49;11.40;99.90
33077;DHT22;38790;51.964;5.924;2022-10-16T00:08:15;11.30;99.90
33077;DHT22;38790;51.964;5.924;2022-10-16T00:10:41;11.30;99.90
33077;DHT22;38790;51.964;5.924;2022-10-16T00:13:08;11.30;99.90
33077;DHT22;38790;51.964;5.924;2022-10-16T00:15:35;11.30;99.90
33077;DHT22;38790;51.964;5.924;2022-10-16T00:18:03;11.30;99.90
33077;DHT22;38790;51.964;5.924;2022-10-16T00:20:29;11.20;99.90
33077;DHT22;38790;51.964;5.924;2022-10-16T00:22:57;11.20;99.90
33077;DHT22;38790;51.964;5.924;2022-10-16T00:25:23;11.10;99.90
33077;DHT22;38790;51.964;5.924;2022-10-16T00:27:49;11.10;99.90
33077;DHT22;38790;51.964;5.924;2022-10-16T00:30:15;11.20;99.90
33077;DHT22;38790;51.964;5.924;2022-10-16T00:32:41;11.20;99.90
33077;DHT22;38790;51.964;5.924;2022-10-16T00:35:07;11.20;99.90
33077;DHT22;38790;51.964;5.924;2022-10-16T00:37:39;11.20;99.90
33077;DHT22;38790;51.964;5.924;2022-10-16T00:40:06;11.30;99.90
33077;DHT22;38790;51.964;5.924;2022-10-16T00:42:32;11.30;99.90
33077;DHT22;38790;51.964;5.924;2022-10-16T00:45:02;11.20;99.90
33077;DHT22;38790;51.964;5.924;2022-10-16T00:47:32;11.20;99.90
33077;DHT22;38790;51.964;5.924;2022-10-16T00:50:16;11.20;99.90
33077;DHT22;38790;51.964;5.924;2022-10-16T00:52:46;11.20;99.90
33077;DHT22;38790;51.964;5.924;2022-10-16T00:55:14;11.20;99.90
33077;DHT22;38790;51.964;5.924;2022-10-16T00:57:41;11.20;99.90
33077;DHT22;38790;51.964;5.924;2022-10-16T01:00:10;11.20;99.90
33077;DHT22;38790;51.964;5.924;2022-10-16T01:02:36;11.10;99.90
33077;DHT22;38790;51.964;5.924;2022-10-16T01:05:03;11.20;99.90
33077;DHT22;38790;51.964;5.924;2022-10-16T01:20:29;11.10;99.90
33077;DHT22;38790;51.964;5.924;2022-10-16T01:23:15;11.10;99.90
33077;DHT22;38790;51.964;5.924;2022-10-16T01:31:11;11.10;99.90
33077;DHT22;38790;51.964;5.924;2022-10-16T01:33:45;11.00;99.90
33077;DHT22;38790;51.964;5.924;2022-10-16T01:36:16;11.00;99.90
33077;DHT22;38790;51.964;5.924;2022-10-16T01:38:47;11.10;99.90
33077;DHT22;38790;51.964;5.924;2022-10-16T01:41:19;11.10;99.90
33077;DHT22;38790;51.964;5.924;2022-10-16T01:43:51;11.10;99.90
33077;DHT22;38790;51.964;5.924;2022-10-16T01:46:20;11.20;99.90
33077;DHT22;38790;51.964;5.924;2022-10-16T01:48:48;11.20;99.90
33077;DHT22;38790;51.964;5.924;2022-10-16T01:51:17;11.30;99.90
33077;DHT22;38790;51.964;5.924;2022-10-16T01:53:48;11.30;99.90
33077;DHT22;38790;51.964;5.924;2022-10-16T01:56:17;11.40;99.90
33077;DHT22;38790;51.964;5.924;2022-10-16T01:58:53;11.40;99.90
33077;DHT22;38790;51.964;5.924;2022-10-16T02:01:23;11.40;99.90
33077;DHT22;38790;51.964;5.924;2022-10-16T02:03:54;11.50;99.90
33077;DHT22;38790;51.964;5.924;2022-10-16T02:06:21;11.50;99.90
33077;DHT22;38790;51.964;5.924;2022-10-16T02:08:47;11.50;99.90
33077;DHT22;38790;51.964;5.924;2022-10-16T02:11:13;11.50;99.90
33077;DHT22;38790;51.964;5.924;2022-10-16T02:13:46;11.50;99.90
33077;DHT22;38790;51.964;5.924;2022-10-16T02:16:14;11.40;99.90
33077;DHT22;38790;51.964;5.924;2022-10-16T02:18:41;11.40;99.90
33077;DHT22;38790;51.964;5.924;2022-10-16T02:21:19;11.50;99.90
33077;DHT22;38790;51.964;5.924;2022-10-16T02:24:03;11.60;99.90
33077;DHT22;38790;51.964;5.924;2022-10-16T02:26:44;11.60;99.90
33077;DHT22;38790;51.964;5.924;2022-10-16T02:29:15;11.60;99.90
33077;DHT22;38790;51.964;5.924;2022-10-16T02:31:46;11.60;99.90
33077;DHT22;38790;51.964;5.924;2022-10-16T02:34:15;11.60;99.90
33077;DHT22;38790;51.964;5.924;2022-10-16T02:36:42;11.60;99.90
33077;DHT22;38790;51.964;5.924;2022-10-16T02:39:10;11.50;99.90
33077;DHT22;38790;51.964;5.924;2022-10-16T02:41:37;11.50;99.90
33077;DHT22;38790;51.964;5.924;2022-10-16T02:44:03;11.50;99.90
33077;DHT22;38790;51.964;5.924;2022-10-16T02:46:29;11.40;99.90
33077;DHT22;38790;51.964;5.924;2022-10-16T02:48:55;11.40;99.90
33077;DHT22;38790;51.964;5.924;2022-10-16T02:51:22;11.40;99.90
33077;DHT22;38790;51.964;5.924;2022-10-16T02:53:48;11.40;99.90
33077;DHT22;38790;51.964;5.924;2022-10-16T02:56:14;11.40;99.90
33077;DHT22;38790;51.964;5.924;2022-10-16T02:58:40;11.40;99.90
33077;DHT22;38790;51.964;5.924;2022-10-16T03:01:06;11.30;99.90
33077;DHT22;38790;51.964;5.924;2022-10-16T03:03:32;11.30;99.90
33077;DHT22;38790;51.964;5.924;2022-10-16T03:05:58;11.30;99.90
33077;DHT22;38790;51.964;5.924;2022-10-16T03:08:24;11.30;99.90
33077;DHT22;38790;51.964;5.924;2022-10-16T03:10:51;11.30;99.90
33077;DHT22;38790;51.964;5.924;2022-10-16T03:13:17;11.40;99.90
33077;DHT22;38790;51.964;5.924;2022-10-16T03:15:46;11.40;99.90
33077;DHT22;38790;51.964;5.924;2022-10-16T03:18:12;11.50;99.90
33077;DHT22;38790;51.964;5.924;2022-10-16T03:20:38;11.50;99.90
33077;DHT22;38790;51.964;5.924;2022-10-16T03:23:04;11.40;99.90
33077;DHT22;38790;51.964;5.924;2022-10-16T03:25:30;11.40;99.90
33077;DHT22;38790;51.964;5.924;2022-10-16T03:27:56;11.30;99.90
33077;DHT22;38790;51.964;5.924;2022-10-16T03:30:22;11.30;99.90
33077;DHT22;38790;51.964;5.924;2022-10-16T03:32:49;11.30;99.90
33077;DHT22;38790;51.964;5.924;2022-10-16T03:35:20;11.40;99.90
33077;DHT22;38790;51.964;5.924;2022-10-16T03:37:46;11.50;99.90
33077;DHT22;38790;51.964;5.924;2022-10-16T03:40:12;11.50;99.90
33077;DHT22;38790;51.964;5.924;2022-10-16T03:42:39;11.50;99.90
33077;DHT22;38790;51.964;5.924;2022-10-16T03:45:05;11.50;99.90
33077;DHT22;38790;51.964;5.924;2022-10-16T03:47:31;11.50;99.90
33077;DHT22;38790;51.964;5.924;2022-10-16T03:49:59;11.50;99.90
33077;DHT22;38790;51.964;5.924;2022-10-16T03:52:25;11.40;99.90
33077;DHT22;38790;51.964;5.924;2022-10-16T03:54:52;11.40;99.90
33077;DHT22;38790;51.964;5.924;2022-10-16T03:57:18;11.40;99.90
33077;DHT22;38790;51.964;5.924;2022-10-16T03:59:44;11.40;99.90
33077;DHT22;38790;51.964;5.924;2022-10-16T04:02:10;11.40;99.90
33077;DHT22;38790;51.964;5.924;2022-10-16T04:04:36;11.50;99.90
33077;DHT22;38790;51.964;5.924;2022-10-16T04:07:02;11.40;99.90
33077;DHT22;38790;51.964;5.924;2022-10-16T04:09:28;11.40;99.90
33077;DHT22;38790;51.964;5.924;2022-10-16T04:11:54;11.30;99.90
33077;DHT22;38790;51.964;5.924;2022-10-16T04:14:20;11.30;99.90
33077;DHT22;38790;51.964;5.924;2022-10-16T04:16:46;11.30;99.90
33077;DHT22;38790;51.964;5.924;2022-10-16T04:19:12;11.40;99.90
33077;DHT22;38790;51.964;5.924;2022-10-16T04:21:39;11.40;99.90
33077;DHT22;38790;51.964;5.924;2022-10-16T04:24:05;11.50;99.90
33077;DHT22;38790;51.964;5.924;2022-10-16T04:26:31;11.60;99.90
33077;DHT22;38790;51.964;5.924;2022-10-16T04:28:57;11.60;99.90
33077;DHT22;38790;51.964;5.924;2022-10-16T04:31:23;11.60;99.90
33077;DHT22;38790;51.964;5.924;2022-10-16T04:33:49;11.60;99.90
33077;DHT22;38790;51.964;5.924;2022-10-16T04:36:15;11.60;99.90
33077;DHT22;38790;51.964;5.924;2022-10-16T04:38:41;11.60;99.90
33077;DHT22;38790;51.964;5.924;2022-10-16T04:41:08;11.70;99.90
33077;DHT22;38790;51.964;5.924;2022-10-16T04:43:34;11.60;99.90
33077;DHT22;38790;51.964;5.924;2022-10-16T04:46:00;11.60;99.90
33077;DHT22;38790;51.964;5.924;2022-10-16T04:48:27;11.60;99.90
33077;DHT22;38790;51.964;5.924;2022-10-16T04:50:53;11.60;99.90
33077;DHT22;38790;51.964;5.924;2022-10-16T04:53:19;11.60;99.90
33077;DHT22;38790;51.964;5.924;2022-10-16T04:55:45;11.50;99.90
33077;DHT22;38790;51.964;5.924;2022-10-16T04:58:12;11.50;99.90
33077;DHT22;38790;51.964;5.924;2022-10-16T05:00:38;11.40;99.90
33077;DHT22;38790;51.964;5.924;2022-10-16T05:03:04;11.40;99.90
33077;DHT22;38790;51.964;5.924;2022-10-16T05:05:33;11.40;99.90
33077;DHT22;38790;51.964;5.924;2022-10-16T05:08:00;11.50;99.90
33077;DHT22;38790;51.964;5.924;2022-10-16T05:10:26;11.50;99.90
33077;DHT22;38790;51.964;5.924;2022-10-16T05:12:52;11.50;99.90
33077;DHT22;38790;51.964;5.924;2022-10-16T05:15:18;11.50;99.90
33077;DHT22;38790;51.964;5.924;2022-10-16T05:17:44;11.40;99.90
33077;DHT22;38790;51.964;5.924;2022-10-16T05:20:12;11.40;99.90
33077;DHT22;38790;51.964;5.924;2022-10-16T05:22:38;11.30;99.90
33077;DHT22;38790;51.964;5.924;2022-10-16T05:25:05;11.30;99.90
33077;DHT22;38790;51.964;5.924;2022-10-16T05:27:31;11.30;99.90
33077;DHT22;38790;51.964;5.924;2022-10-16T05:29:57;11.20;99.90
33077;DHT22;38790;51.964;5.924;2022-10-16T05:32:23;11.20;99.90
33077;DHT22;38790;51.964;5.924;2022-10-16T05:34:50;11.10;99.90
33077;DHT22;38790;51.964;5.924;2022-10-16T05:37:16;11.10;99.90
33077;DHT22;38790;51.964;5.924;2022-10-16T05:39:42;11.10;99.90
33077;DHT22;38790;51.964;5.924;2022-10-16T05:42:09;11.00;99.90
33077;DHT22;38790;51.964;5.924;2022-10-16T05:44:35;11.00;99.90
33077;DHT22;38790;51.964;5.924;2022-10-16T05:47:01;11.00;99.90
33077;DHT22;38790;51.964;5.924;2022-10-16T05:49:27;10.90;99.90
33077;DHT22;38790;51.964;5.924;2022-10-16T05:51:53;11.00;99.90
33077;DHT22;38790;51.964;5.924;2022-10-16T05:54:19;10.90;99.90
33077;DHT22;38790;51.964;5.924;2022-10-16T05:56:45;10.90;99.90
33077;DHT22;38790;51.964;5.924;2022-10-16T05:59:11;10.90;99.90
33077;DHT22;38790;51.964;5.924;2022-10-16T06:01:37;10.90;99.90
33077;DHT22;38790;51.964;5.924;2022-10-16T06:04:03;10.80;99.90
33077;DHT22;38790;51.964;5.924;2022-10-16T06:06:30;10.80;99.90
33077;DHT22;38790;51.964;5.924;2022-10-16T06:08:57;10.90;99.90
33077;DHT22;38790;51.964;5.924;2022-10-16T06:11:25;10.90;99.90
33077;DHT22;38790;51.964;5.924;2022-10-16T06:13:54;10.90;99.90
33077;DHT22;38790;51.964;5.924;2022-10-16T06:16:20;10.90;99.90
33077;DHT22;38790;51.964;5.924;2022-10-16T06:18:46;10.90;99.90
33077;DHT22;38790;51.964;5.924;2022-10-16T06:21:18;10.90;99.90
33077;DHT22;38790;51.964;5.924;2022-10-16T06:23:45;10.90;99.90
33077;DHT22;38790;51.964;5.924;2022-10-16T06:26:17;11.00;99.90
33077;DHT22;38790;51.964;5.924;2022-10-16T06:28:43;11.10;99.90
33077;DHT22;38790;51.964;5.924;2022-10-16T06:31:10;11.20;99.90
33077;DHT22;38790;51.964;5.924;2022-10-16T06:33:38;11.30;99.90
33077;DHT22;38790;51.964;5.924;2022-10-16T06:36:11;11.30;99.90
33077;DHT22;38790;51.964;5.924;2022-10-16T06:38:37;11.30;99.90
33077;DHT22;38790;51.964;5.924;2022-10-16T06:41:05;11.40;99.90
33077;DHT22;38790;51.964;5.924;2022-10-16T06:43:32;11.50;99.90
33077;DHT22;38790;51.964;5.924;2022-10-16T06:45:59;11.60;99.90
33077;DHT22;38790;51.964;5.924;2022-10-16T06:48:28;11.70;99.90
33077;DHT22;38790;51.964;5.924;2022-10-16T06:50:58;11.80;99.90
33077;DHT22;38790;51.964;5.924;2022-10-16T06:53:25;11.90;99.90
33077;DHT22;38790;51.964;5.924;2022-10-16T06:55:52;11.90;99.90
33077;DHT22;38790;51.964;5.924;2022-10-16T06:58:18;12.00;99.90
33077;DHT22;38790;51.964;5.924;2022-10-16T07:00:44;12.10;99.90
33077;DHT22;38790;51.964;5.924;2022-10-16T07:03:11;12.10;99.90
33077;DHT22;38790;51.964;5.924;2022-10-16T07:05:41;12.20;99.90
33077;DHT22;38790;51.964;5.924;2022-10-16T07:08:08;12.20;99.90
33077;DHT22;38790;51.964;5.924;2022-10-16T07:10:35;12.20;99.90
33077;DHT22;38790;51.964;5.924;2022-10-16T07:13:01;12.20;99.90
33077;DHT22;38790;51.964;5.924;2022-10-16T07:15:27;12.20;99.90
33077;DHT22;38790;51.964;5.924;2022-10-16T07:17:53;12.30;99.90
33077;DHT22;38790;51.964;5.924;2022-10-16T07:20:20;12.40;99.90
33077;DHT22;38790;51.964;5.924;2022-10-16T07:22:46;12.40;99.90
33077;DHT22;38790;51.964;5.924;2022-10-16T07:25:12;12.50;99.90
33077;DHT22;38790;51.964;5.924;2022-10-16T07:27:38;12.50;99.90
33077;DHT22;38790;51.964;5.924;2022-10-16T07:30:05;12.50;99.90
33077;DHT22;38790;51.964;5.924;2022-10-16T07:32:32;12.50;99.90
33077;DHT22;38790;51.964;5.924;2022-10-16T07:34:58;12.60;99.90
33077;DHT22;38790;51.964;5.924;2022-10-16T07:37:24;12.60;99.90
33077;DHT22;38790;51.964;5.924;2022-10-16T07:39:50;12.70;99.90
33077;DHT22;38790;51.964;5.924;2022-10-16T07:42:16;12.80;99.90
33077;DHT22;38790;51.964;5.924;2022-10-16T07:44:42;13.00;99.90
33077;DHT22;38790;51.964;5.924;2022-10-16T07:47:08;13.10;99.90
33077;DHT22;38790;51.964;5.924;2022-10-16T07:49:35;13.20;99.90
33077;DHT22;38790;51.964;5.924;2022-10-16T07:52:01;13.20;99.90
33077;DHT22;38790;51.964;5.924;2022-10-16T07:54:27;13.30;99.90
33077;DHT22;38790;51.964;5.924;2022-10-16T07:56:53;13.40;99.90
33077;DHT22;38790;51.964;5.924;2022-10-16T07:59:19;13.60;99.90
33077;DHT22;38790;51.964;5.924;2022-10-16T08:01:45;13.70;99.90
33077;DHT22;38790;51.964;5.924;2022-10-16T08:04:11;13.80;99.90
33077;DHT22;38790;51.964;5.924;2022-10-16T08:06:39;13.70;99.90
33077;DHT22;38790;51.964;5.924;2022-10-16T08:09:07;13.90;99.90
33077;DHT22;38790;51.964;5.924;2022-10-16T08:11:33;14.00;99.90
33077;DHT22;38790;51.964;5.924;2022-10-16T08:14:00;14.20;99.90
33077;DHT22;38790;51.964;5.924;2022-10-16T08:16:26;14.40;99.90
33077;DHT22;38790;51.964;5.924;2022-10-16T08:18:52;14.60;99.90
33077;DHT22;38790;51.964;5.924;2022-10-16T08:21:22;14.70;99.90
33077;DHT22;38790;51.964;5.924;2022-10-16T08:23:52;14.60;99.90
33077;DHT22;38790;51.964;5.924;2022-10-16T08:26:19;14.60;99.90
33077;DHT22;38790;51.964;5.924;2022-10-16T08:28:45;14.90;99.90
33077;DHT22;38790;51.964;5.924;2022-10-16T08:31:15;15.10;99.90
33077;DHT22;38790;51.964;5.924;2022-10-16T08:33:43;15.10;99.90
33077;DHT22;38790;51.964;5.924;2022-10-16T08:36:11;15.30;99.90
33077;DHT22;38790;51.964;5.924;2022-10-16T08:38:37;15.20;99.90
33077;DHT22;38790;51.964;5.924;2022-10-16T08:47:17;15.40;99.90
33077;DHT22;38790;51.964;5.924;2022-10-16T08:49:58;15.30;99.90
33077;DHT22;38790;51.964;5.924;2022-10-16T08:52:32;15.20;99.90
33077;DHT22;38790;51.964;5.924;2022-10-16T08:54:59;15.30;99.90
33077;DHT22;38790;51.964;5.924;2022-10-16T08:57:26;15.10;99.90
33077;DHT22;38790;51.964;5.924;2022-10-16T09:00:00;15.20;99.90
33077;DHT22;38790;51.964;5.924;2022-10-16T09:02:40;15.50;99.90
33077;DHT22;38790;51.964;5.924;2022-10-16T09:05:41;15.70;99.90
33077;DHT22;38790;51.964;5.924;2022-10-16T09:08:15;15.90;99.90
33077;DHT22;38790;51.964;5.924;2022-10-16T09:10:51;16.00;99.90
33077;DHT22;38790;51.964;5.924;2022-10-16T09:16:37;16.10;99.90
33077;DHT22;38790;51.964;5.924;2022-10-16T09:19:36;16.10;99.90
33077;DHT22;38790;51.964;5.924;2022-10-16T09:22:15;16.30;99.90
33077;DHT22;38790;51.964;5.924;2022-10-16T09:24:41;16.30;99.90
33077;DHT22;38790;51.964;5.924;2022-10-16T09:27:12;16.40;99.90
33077;DHT22;38790;51.964;5.924;2022-10-16T09:29:39;16.50;99.90
33077;DHT22;38790;51.964;5.924;2022-10-16T09:32:15;16.70;99.90
33077;DHT22;38790;51.964;5.924;2022-10-16T09:34:55;16.80;99.90
33077;DHT22;38790;51.964;5.924;2022-10-16T09:37:25;16.90;99.90
33077;DHT22;38790;51.964;5.924;2022-10-16T09:39:53;16.90;99.90
33077;DHT22;38790;51.964;5.924;2022-10-16T09:44:50;16.90;99.90
33077;DHT22;38790;51.964;5.924;2022-10-16T09:47:22;16.90;99.90
33077;DHT22;38790;51.964;5.924;2022-10-16T09:49:59;16.60;99.90
33077;DHT22;38790;51.964;5.924;2022-10-16T09:52:29;16.50;99.90
33077;DHT22;38790;51.964;5.924;2022-10-16T09:55:00;16.50;99.90
33077;DHT22;38790;51.964;5.924;2022-10-16T09:57:27;16.50;99.90
33077;DHT22;38790;51.964;5.924;2022-10-16T09:59:55;16.70;99.90
33077;DHT22;38790;51.964;5.924;2022-10-16T10:02:34;16.80;99.90
33077;DHT22;38790;51.964;5.924;2022-10-16T10:05:02;17.00;99.90
33077;DHT22;38790;51.964;5.924;2022-10-16T10:07:32;17.10;99.90
33077;DHT22;38790;51.964;5.924;2022-10-16T10:10:00;17.10;99.90
33077;DHT22;38790;51.964;5.924;2022-10-16T10:12:29;17.30;99.90
33077;DHT22;38790;51.964;5.924;2022-10-16T10:15:07;17.20;99.90
33077;DHT22;38790;51.964;5.924;2022-10-16T10:17:46;17.20;99.90
33077;DHT22;38790;51.964;5.924;2022-10-16T10:20:33;17.30;99.90
33077;DHT22;38790;51.964;5.924;2022-10-16T10:23:13;17.20;99.90
33077;DHT22;38790;51.964;5.924;2022-10-16T10:31:19;17.80;99.90
33077;DHT22;38790;51.964;5.924;2022-10-16T10:34:19;17.90;99.90
33077;DHT22;38790;51.964;5.924;2022-10-16T10:36:56;17.90;99.90
33077;DHT22;38790;51.964;5.924;2022-10-16T10:39:30;18.00;99.90
33077;DHT22;38790;51.964;5.924;2022-10-16T10:42:01;18.10;99.90
33077;DHT22;38790;51.964;5.924;2022-10-16T10:47:39;18.00;99.90
33077;DHT22;38790;51.964;5.924;2022-10-16T10:50:39;18.00;99.90
33077;DHT22;38790;51.964;5.924;2022-10-16T10:58:57;18.10;99.90
33077;DHT22;38790;51.964;5.924;2022-10-16T11:01:50;17.90;99.90
33077;DHT22;38790;51.964;5.924;2022-10-16T11:04:42;17.80;99.90
33077;DHT22;38790;51.964;5.924;2022-10-16T11:07:19;17.90;99.90
33077;DHT22;38790;51.964;5.924;2022-10-16T11:09:50;18.30;99.90
33077;DHT22;38790;51.964;5.924;2022-10-16T11:12:30;18.50;99.90
33077;DHT22;38790;51.964;5.924;2022-10-16T11:15:49;18.50;99.90
33077;DHT22;38790;51.964;5.924;2022-10-16T11:18:18;18.30;99.90
33077;DHT22;38790;51.964;5.924;2022-10-16T11:20:54;18.20;99.90
33077;DHT22;38790;51.964;5.924;2022-10-16T11:23:53;18.40;99.90
33077;DHT22;38790;51.964;5.924;2022-10-16T11:26:25;18.60;99.90
33077;DHT22;38790;51.964;5.924;2022-10-16T11:28:54;18.50;99.90
33077;DHT22;38790;51.964;5.924;2022-10-16T11:41:55;18.90;99.90
33077;DHT22;38790;51.964;5.924;2022-10-16T11:49:52;18.70;99.90
33077;DHT22;38790;51.964;5.924;2022-10-16T11:54:57;18.90;99.90
33077;DHT22;38790;51.964;5.924;2022-10-16T11:57:29;18.90;99.90
33077;DHT22;38790;51.964;5.924;2022-10-16T12:00:17;18.80;99.90
33077;DHT22;38790;51.964;5.924;2022-10-16T12:06:11;18.70;99.90
33077;DHT22;38790;51.964;5.924;2022-10-16T12:08:39;18.60;99.90
33077;DHT22;38790;51.964;5.924;2022-10-16T12:13:50;18.70;99.90
33077;DHT22;38790;51.964;5.924;2022-10-16T12:18:44;18.70;99.90
33077;DHT22;38790;51.964;5.924;2022-10-16T12:21:12;18.80;99.90
33077;DHT22;38790;51.964;5.924;2022-10-16T12:23:51;18.80;99.90
33077;DHT22;38790;51.964;5.924;2022-10-16T12:26:28;18.80;99.90
33077;DHT22;38790;51.964;5.924;2022-10-16T12:29:12;18.80;99.90
33077;DHT22;38790;51.964;5.924;2022-10-16T12:31:46;18.70;99.90
33077;DHT22;38790;51.964;5.924;2022-10-16T12:34:23;18.60;99.90
33077;DHT22;38790;51.964;5.924;2022-10-16T12:36:53;18.40;99.90
33077;DHT22;38790;51.964;5.924;2022-10-16T12:39:24;18.20;99.90
33077;DHT22;38790;51.964;5.924;2022-10-16T12:44:53;18.10;99.90
33077;DHT22;38790;51.964;5.924;2022-10-16T12:52:50;18.40;99.90
33077;DHT22;38790;51.964;5.924;2022-10-16T12:55:18;18.50;99.90
33077;DHT22;38790;51.964;5.924;2022-10-16T12:58:02;18.60;99.90
33077;DHT22;38790;51.964;5.924;2022-10-16T13:05:49;18.70;99.90
33077;DHT22;38790;51.964;5.924;2022-10-16T13:16:51;18.30;99.90
33077;DHT22;38790;51.964;5.924;2022-10-16T13:19:47;18.10;99.90
33077;DHT22;38790;51.964;5.924;2022-10-16T13:28:28;18.30;99.90
33077;DHT22;38790;51.964;5.924;2022-10-16T13:31:00;18.40;99.90
33077;DHT22;38790;51.964;5.924;2022-10-16T13:33:38;18.50;99.90
33077;DHT22;38790;51.964;5.924;2022-10-16T13:36:06;18.60;99.90
33077;DHT22;38790;51.964;5.924;2022-10-16T13:38:36;18.60;99.90
33077;DHT22;38790;51.964;5.924;2022-10-16T13:41:17;18.60;99.90
33077;DHT22;38790;51.964;5.924;2022-10-16T13:43:51;18.60;99.90
33077;DHT22;38790;51.964;5.924;2022-10-16T13:46:21;18.60;99.90
33077;DHT22;38790;51.964;5.924;2022-10-16T13:49:02;18.60;99.90
33077;DHT22;38790;51.964;5.924;2022-10-16T13:51:29;18.70;99.90
33077;DHT22;38790;51.964;5.924;2022-10-16T13:53:57;18.70;99.90
33077;DHT22;38790;51.964;5.924;2022-10-16T13:56:27;18.70;99.90
33077;DHT22;38790;51.964;5.924;2022-10-16T13:59:20;18.70;99.90
33077;DHT22;38790;51.964;5.924;2022-10-16T14:01:48;18.60;99.90
33077;DHT22;38790;51.964;5.924;2022-10-16T14:04:15;18.50;99.90
33077;DHT22;38790;51.964;5.924;2022-10-16T14:06:44;18.50;99.90
33077;DHT22;38790;51.964;5.924;2022-10-16T14:11:49;18.40;99.90
33077;DHT22;38790;51.964;5.924;2022-10-16T14:14:18;18.30;99.90
33077;DHT22;38790;51.964;5.924;2022-10-16T14:16:45;18.30;99.90
33077;DHT22;38790;51.964;5.924;2022-10-16T14:19:25;18.30;99.90
33077;DHT22;38790;51.964;5.924;2022-10-16T14:21:52;18.30;99.90
33077;DHT22;38790;51.964;5.924;2022-10-16T14:26:51;18.50;99.90
33077;DHT22;38790;51.964;5.924;2022-10-16T14:29:20;18.60;99.90
33077;DHT22;38790;51.964;5.924;2022-10-16T14:31:57;18.60;99.90
33077;DHT22;38790;51.964;5.924;2022-10-16T14:34:26;18.60;99.90
33077;DHT22;38790;51.964;5.924;2022-10-16T14:36:54;18.70;99.90
33077;DHT22;38790;51.964;5.924;2022-10-16T14:39:22;18.80;99.90
33077;DHT22;38790;51.964;5.924;2022-10-16T14:41:52;18.90;99.90
33077;DHT22;38790;51.964;5.924;2022-10-16T14:44:29;18.90;99.90
33077;DHT22;38790;51.964;5.924;2022-10-16T14:46:57;18.90;99.90
33077;DHT22;38790;51.964;5.924;2022-10-16T14:49:24;18.90;99.90
33077;DHT22;38790;51.964;5.924;2022-10-16T14:51:50;18.80;99.90
33077;DHT22;38790;51.964;5.924;2022-10-16T14:54:18;18.60;99.90
33077;DHT22;38790;51.964;5.924;2022-10-16T14:59:40;18.30;99.90
33077;DHT22;38790;51.964;5.924;2022-10-16T15:04:49;18.10;99.90
33077;DHT22;38790;51.964;5.924;2022-10-16T15:07:15;18.10;99.90
33077;DHT22;38790;51.964;5.924;2022-10-16T15:09:41;18.20;99.90
33077;DHT22;38790;51.964;5.924;2022-10-16T15:12:08;18.30;99.90
33077;DHT22;38790;51.964;5.924;2022-10-16T15:14:34;18.40;99.90
33077;DHT22;38790;51.964;5.924;2022-10-16T15:17:00;18.30;99.90
33077;DHT22;38790;51.964;5.924;2022-10-16T15:19:26;18.30;99.90
33077;DHT22;38790;51.964;5.924;2022-10-16T15:21:52;18.20;99.90
33077;DHT22;38790;51.964;5.924;2022-10-16T15:24:18;18.10;99.90
33077;DHT22;38790;51.964;5.924;2022-10-16T15:26:45;18.00;99.90
33077;DHT22;38790;51.964;5.924;2022-10-16T15:29:15;17.90;99.90
33077;DHT22;38790;51.964;5.924;2022-10-16T15:31:41;17.70;99.90
33077;DHT22;38790;51.964;5.924;2022-10-16T15:34:13;17.70;99.90
33077;DHT22;38790;51.964;5.924;2022-10-16T15:36:40;17.60;99.90
33077;DHT22;38790;51.964;5.924;2022-10-16T15:39:13;17.60;99.90
33077;DHT22;38790;51.964;5.924;2022-10-16T15:41:39;17.50;99.90
33077;DHT22;38790;51.964;5.924;2022-10-16T15:44:05;17.40;99.90
33077;DHT22;38790;51.964;5.924;2022-10-16T15:46:31;17.30;99.90
33077;DHT22;38790;51.964;5.924;2022-10-16T15:48:59;17.20;99.90
33077;DHT22;38790;51.964;5.924;2022-10-16T15:51:26;17.20;99.90
33077;DHT22;38790;51.964;5.924;2022-10-16T15:53:58;17.20;99.90
33077;DHT22;38790;51.964;5.924;2022-10-16T15:56:27;17.20;99.90
33077;DHT22;38790;51.964;5.924;2022-10-16T15:58:54;17.10;99.90
33077;DHT22;38790;51.964;5.924;2022-10-16T16:01:21;17.10;99.90
33077;DHT22;38790;51.964;5.924;2022-10-16T16:03:47;17.00;99.90
33077;DHT22;38790;51.964;5.924;2022-10-16T16:06:14;16.90;99.90
33077;DHT22;38790;51.964;5.924;2022-10-16T16:08:41;16.90;99.90
33077;DHT22;38790;51.964;5.924;2022-10-16T16:11:12;16.90;99.90
33077;DHT22;38790;51.964;5.924;2022-10-16T16:13:39;16.90;99.90
33077;DHT22;38790;51.964;5.924;2022-10-16T16:16:11;16.80;99.90
33077;DHT22;38790;51.964;5.924;2022-10-16T16:18:37;16.80;99.90
33077;DHT22;38790;51.964;5.924;2022-10-16T16:21:04;16.80;99.90
33077;DHT22;38790;51.964;5.924;2022-10-16T16:23:31;16.70;99.90
33077;DHT22;38790;51.964;5.924;2022-10-16T16:26:16;16.60;99.90
33077;DHT22;38790;51.964;5.924;2022-10-16T16:28:49;16.50;99.90
33077;DHT22;38790;51.964;5.924;2022-10-16T16:31:15;16.40;99.90
33077;DHT22;38790;51.964;5.924;2022-10-16T16:33:42;16.30;99.90
33077;DHT22;38790;51.964;5.924;2022-10-16T16:36:08;16.20;99.90
33077;DHT22;38790;51.964;5.924;2022-10-16T16:38:34;16.10;99.90
33077;DHT22;38790;51.964;5.924;2022-10-16T16:41:14;16.00;99.90
33077;DHT22;38790;51.964;5.924;2022-10-16T16:43:40;16.00;99.90
33077;DHT22;38790;51.964;5.924;2022-10-16T16:46:07;15.90;99.90
33077;DHT22;38790;51.964;5.924;2022-10-16T16:48:33;15.90;99.90
33077;DHT22;38790;51.964;5.924;2022-10-16T16:51:08;15.90;99.90
33077;DHT22;38790;51.964;5.924;2022-10-16T16:53:35;15.80;99.90
33077;DHT22;38790;51.964;5.924;2022-10-16T16:56:04;15.80;99.90
33077;DHT22;38790;51.964;5.924;2022-10-16T16:58:31;15.80;99.90
33077;DHT22;38790;51.964;5.924;2022-10-16T17:01:00;15.70;99.90
33077;DHT22;38790;51.964;5.924;2022-10-16T17:03:32;15.70;99.90
33077;DHT22;38790;51.964;5.924;2022-10-16T17:06:05;15.60;99.90
33077;DHT22;38790;51.964;5.924;2022-10-16T17:08:33;15.60;99.90
33077;DHT22;38790;51.964;5.924;2022-10-16T17:10:59;15.50;99.90
33077;DHT22;38790;51.964;5.924;2022-10-16T17:13:27;15.30;99.90
33077;DHT22;38790;51.964;5.924;2022-10-16T17:15:54;15.30;99.90
33077;DHT22;38790;51.964;5.924;2022-10-16T17:18:22;15.20;99.90
33077;DHT22;38790;51.964;5.924;2022-10-16T17:20:49;15.20;99.90
33077;DHT22;38790;51.964;5.924;2022-10-16T17:23:17;15.20;99.90
33077;DHT22;38790;51.964;5.924;2022-10-16T17:25:44;15.10;99.90
33077;DHT22;38790;51.964;5.924;2022-10-16T17:28:10;15.10;99.90
33077;DHT22;38790;51.964;5.924;2022-10-16T17:30:38;15.10;99.90
33077;DHT22;38790;51.964;5.924;2022-10-16T17:33:05;15.10;99.90
33077;DHT22;38790;51.964;5.924;2022-10-16T17:35:42;15.10;99.90